sensor_id;sensor_type;location;lat;lon;timestamp;P1;durP1;ratioP1;P2;durP2;ratioP2
11829;SDS011;5972;42.134;24.718;2023-06-14T00:00:53;5.65;;;5.15;;
11829;SDS011;5972;42.134;24.718;2023-06-14T00:03:22;5.60;;;4.82;;
11829;SDS011;5972;42.134;24.718;2023-06-14T00:05:51;5.45;;;4.95;;
11829;SDS011;5972;42.134;24.718;2023-06-14T00:08:18;6.20;;;5.20;;
11829;SDS011;5972;42.134;24.718;2023-06-14T00:10:46;5.07;;;4.68;;
11829;SDS011;5972;42.134;24.718;2023-06-14T00:13:13;6.22;;;5.07;;
11829;SDS011;5972;42.134;24.718;2023-06-14T00:15:40;5.38;;;4.85;;
11829;SDS011;5972;42.134;24.718;2023-06-14T00:18:07;5.75;;;5.13;;
11829;SDS011;5972;42.134;24.718;2023-06-14T00:20:36;6.03;;;5.43;;
11829;SDS011;5972;42.134;24.718;2023-06-14T00:23:05;6.15;;;5.55;;
11829;SDS011;5972;42.134;24.718;2023-06-14T00:25:32;5.43;;;5.03;;
11829;SDS011;5972;42.134;24.718;2023-06-14T00:27:59;6.72;;;4.88;;
11829;SDS011;5972;42.134;24.718;2023-06-14T00:30:26;6.32;;;5.57;;
11829;SDS011;5972;42.134;24.718;2023-06-14T00:32:56;6.10;;;5.50;;
11829;SDS011;5972;42.134;24.718;2023-06-14T00:35:30;9.20;;;5.40;;
11829;SDS011;5972;42.134;24.718;2023-06-14T00:38:00;5.93;;;5.20;;
11829;SDS011;5972;42.134;24.718;2023-06-14T00:40:29;7.78;;;5.32;;
11829;SDS011;5972;42.134;24.718;2023-06-14T00:42:56;6.85;;;5.28;;
11829;SDS011;5972;42.134;24.718;2023-06-14T00:45:22;6.05;;;5.55;;
11829;SDS011;5972;42.134;24.718;2023-06-14T00:47:49;5.72;;;5.18;;
11829;SDS011;5972;42.134;24.718;2023-06-14T00:50:20;6.55;;;4.88;;
11829;SDS011;5972;42.134;24.718;2023-06-14T00:52:48;6.03;;;5.43;;
11829;SDS011;5972;42.134;24.718;2023-06-14T00:55:15;5.60;;;5.20;;
11829;SDS011;5972;42.134;24.718;2023-06-14T00:57:44;6.20;;;5.55;;
11829;SDS011;5972;42.134;24.718;2023-06-14T01:00:11;5.72;;;5.32;;
11829;SDS011;5972;42.134;24.718;2023-06-14T01:02:39;7.85;;;5.50;;
11829;SDS011;5972;42.134;24.718;2023-06-14T01:05:06;6.88;;;5.00;;
11829;SDS011;5972;42.134;24.718;2023-06-14T01:07:41;7.35;;;4.93;;
11829;SDS011;5972;42.134;24.718;2023-06-14T01:10:25;5.68;;;5.18;;
11829;SDS011;5972;42.134;24.718;2023-06-14T01:13:05;5.55;;;5.00;;
11829;SDS011;5972;42.134;24.718;2023-06-14T01:15:37;5.82;;;5.10;;
11829;SDS011;5972;42.134;24.718;2023-06-14T01:18:05;7.15;;;5.53;;
11829;SDS011;5972;42.134;24.718;2023-06-14T01:20:32;7.43;;;5.45;;
11829;SDS011;5972;42.134;24.718;2023-06-14T01:23:03;5.80;;;5.25;;
11829;SDS011;5972;42.134;24.718;2023-06-14T01:25:29;5.85;;;5.32;;
11829;SDS011;5972;42.134;24.718;2023-06-14T01:27:57;6.35;;;5.75;;
11829;SDS011;5972;42.134;24.718;2023-06-14T01:30:26;6.45;;;5.70;;
11829;SDS011;5972;42.134;24.718;2023-06-14T01:32:55;5.63;;;5.13;;
11829;SDS011;5972;42.134;24.718;2023-06-14T01:35:23;7.60;;;5.20;;
11829;SDS011;5972;42.134;24.718;2023-06-14T01:37:50;5.50;;;5.00;;
11829;SDS011;5972;42.134;24.718;2023-06-14T01:40:19;7.45;;;5.32;;
11829;SDS011;5972;42.134;24.718;2023-06-14T01:42:47;6.30;;;5.50;;
11829;SDS011;5972;42.134;24.718;2023-06-14T01:45:17;7.30;;;5.78;;
11829;SDS011;5972;42.134;24.718;2023-06-14T01:47:45;5.28;;;4.88;;
11829;SDS011;5972;42.134;24.718;2023-06-14T01:50:13;6.50;;;5.90;;
11829;SDS011;5972;42.134;24.718;2023-06-14T01:52:40;7.70;;;5.50;;
11829;SDS011;5972;42.134;24.718;2023-06-14T01:55:12;6.60;;;6.10;;
11829;SDS011;5972;42.134;24.718;2023-06-14T01:57:41;7.07;;;5.40;;
11829;SDS011;5972;42.134;24.718;2023-06-14T02:00:08;5.72;;;5.32;;
11829;SDS011;5972;42.134;24.718;2023-06-14T02:02:37;6.20;;;5.60;;
11829;SDS011;5972;42.134;24.718;2023-06-14T02:05:04;9.95;;;5.47;;
11829;SDS011;5972;42.134;24.718;2023-06-14T02:07:31;7.97;;;5.53;;
11829;SDS011;5972;42.134;24.718;2023-06-14T02:12:32;5.93;;;5.43;;
11829;SDS011;5972;42.134;24.718;2023-06-14T02:15:00;9.82;;;5.43;;
11829;SDS011;5972;42.134;24.718;2023-06-14T02:17:28;6.07;;;5.53;;
11829;SDS011;5972;42.134;24.718;2023-06-14T02:19:55;6.30;;;5.18;;
11829;SDS011;5972;42.134;24.718;2023-06-14T02:22:23;5.75;;;5.35;;
11829;SDS011;5972;42.134;24.718;2023-06-14T02:24:50;6.45;;;5.20;;
11829;SDS011;5972;42.134;24.718;2023-06-14T02:27:17;6.03;;;5.53;;
11829;SDS011;5972;42.134;24.718;2023-06-14T02:29:44;6.45;;;5.55;;
11829;SDS011;5972;42.134;24.718;2023-06-14T02:32:12;6.00;;;5.25;;
11829;SDS011;5972;42.134;24.718;2023-06-14T02:34:48;7.05;;;5.30;;
11829;SDS011;5972;42.134;24.718;2023-06-14T02:37:15;5.93;;;5.43;;
11829;SDS011;5972;42.134;24.718;2023-06-14T02:39:42;6.18;;;5.57;;
11829;SDS011;5972;42.134;24.718;2023-06-14T02:42:09;7.30;;;5.72;;
11829;SDS011;5972;42.134;24.718;2023-06-14T02:44:36;6.63;;;6.00;;
11829;SDS011;5972;42.134;24.718;2023-06-14T02:47:03;7.18;;;5.88;;
11829;SDS011;5972;42.134;24.718;2023-06-14T02:49:31;5.75;;;5.20;;
11829;SDS011;5972;42.134;24.718;2023-06-14T02:51:58;6.68;;;6.07;;
11829;SDS011;5972;42.134;24.718;2023-06-14T02:54:25;6.25;;;5.75;;
11829;SDS011;5972;42.134;24.718;2023-06-14T02:56:52;7.25;;;6.03;;
11829;SDS011;5972;42.134;24.718;2023-06-14T02:59:18;7.15;;;5.53;;
11829;SDS011;5972;42.134;24.718;2023-06-14T03:01:46;5.57;;;5.18;;
11829;SDS011;5972;42.134;24.718;2023-06-14T03:04:13;7.80;;;5.70;;
11829;SDS011;5972;42.134;24.718;2023-06-14T03:06:42;10.00;;;5.68;;
11829;SDS011;5972;42.134;24.718;2023-06-14T03:09:15;9.85;;;5.70;;
11829;SDS011;5972;42.134;24.718;2023-06-14T03:11:42;6.47;;;5.60;;
11829;SDS011;5972;42.134;24.718;2023-06-14T03:14:08;7.68;;;5.40;;
11829;SDS011;5972;42.134;24.718;2023-06-14T03:16:36;13.27;;;5.43;;
11829;SDS011;5972;42.134;24.718;2023-06-14T03:19:03;5.80;;;5.20;;
11829;SDS011;5972;42.134;24.718;2023-06-14T03:21:30;7.25;;;5.32;;
11829;SDS011;5972;42.134;24.718;2023-06-14T03:23:58;7.05;;;5.07;;
11829;SDS011;5972;42.134;24.718;2023-06-14T03:26:25;7.63;;;5.45;;
11829;SDS011;5972;42.134;24.718;2023-06-14T03:28:52;9.10;;;6.40;;
11829;SDS011;5972;42.134;24.718;2023-06-14T03:31:20;14.95;;;5.68;;
11829;SDS011;5972;42.134;24.718;2023-06-14T03:33:48;7.65;;;5.05;;
11829;SDS011;5972;42.134;24.718;2023-06-14T03:36:14;11.50;;;5.75;;
11829;SDS011;5972;42.134;24.718;2023-06-14T03:38:42;11.27;;;5.63;;
11829;SDS011;5972;42.134;24.718;2023-06-14T03:41:11;6.13;;;5.57;;
11829;SDS011;5972;42.134;24.718;2023-06-14T03:43:37;13.07;;;6.45;;
11829;SDS011;5972;42.134;24.718;2023-06-14T03:46:04;7.93;;;5.78;;
11829;SDS011;5972;42.134;24.718;2023-06-14T03:48:31;8.98;;;6.18;;
11829;SDS011;5972;42.134;24.718;2023-06-14T03:50:58;12.55;;;6.15;;
11829;SDS011;5972;42.134;24.718;2023-06-14T03:53:25;9.95;;;6.00;;
11829;SDS011;5972;42.134;24.718;2023-06-14T03:55:53;11.98;;;6.03;;
11829;SDS011;5972;42.134;24.718;2023-06-14T03:58:22;7.22;;;6.32;;
11829;SDS011;5972;42.134;24.718;2023-06-14T04:00:48;8.80;;;6.18;;
11829;SDS011;5972;42.134;24.718;2023-06-14T04:03:15;9.48;;;7.03;;
11829;SDS011;5972;42.134;24.718;2023-06-14T04:05:42;8.20;;;6.88;;
11829;SDS011;5972;42.134;24.718;2023-06-14T04:08:09;13.27;;;6.93;;
11829;SDS011;5972;42.134;24.718;2023-06-14T04:10:39;8.40;;;7.00;;
11829;SDS011;5972;42.134;24.718;2023-06-14T04:13:06;9.45;;;7.20;;
11829;SDS011;5972;42.134;24.718;2023-06-14T04:15:34;11.10;;;7.43;;
11829;SDS011;5972;42.134;24.718;2023-06-14T04:18:02;9.95;;;6.97;;
11829;SDS011;5972;42.134;24.718;2023-06-14T04:20:29;9.02;;;7.05;;
11829;SDS011;5972;42.134;24.718;2023-06-14T04:22:56;9.65;;;6.70;;
11829;SDS011;5972;42.134;24.718;2023-06-14T04:25:23;8.15;;;7.10;;
11829;SDS011;5972;42.134;24.718;2023-06-14T04:27:51;10.05;;;7.30;;
11829;SDS011;5972;42.134;24.718;2023-06-14T04:30:18;9.90;;;6.50;;
11829;SDS011;5972;42.134;24.718;2023-06-14T04:32:47;9.98;;;7.35;;
11829;SDS011;5972;42.134;24.718;2023-06-14T04:35:14;10.15;;;6.80;;
11829;SDS011;5972;42.134;24.718;2023-06-14T04:37:42;10.68;;;6.80;;
11829;SDS011;5972;42.134;24.718;2023-06-14T04:40:10;9.82;;;6.70;;
11829;SDS011;5972;42.134;24.718;2023-06-14T04:42:37;11.18;;;6.78;;
11829;SDS011;5972;42.134;24.718;2023-06-14T04:45:06;8.45;;;6.97;;
11829;SDS011;5972;42.134;24.718;2023-06-14T04:47:34;9.50;;;6.38;;
11829;SDS011;5972;42.134;24.718;2023-06-14T04:50:04;10.13;;;5.82;;
11829;SDS011;5972;42.134;24.718;2023-06-14T04:52:31;9.02;;;5.82;;
11829;SDS011;5972;42.134;24.718;2023-06-14T04:54:58;6.28;;;5.63;;
11829;SDS011;5972;42.134;24.718;2023-06-14T04:57:25;9.73;;;6.22;;
11829;SDS011;5972;42.134;24.718;2023-06-14T04:59:52;9.82;;;5.70;;
11829;SDS011;5972;42.134;24.718;2023-06-14T05:02:20;10.18;;;6.35;;
11829;SDS011;5972;42.134;24.718;2023-06-14T05:04:48;11.88;;;7.13;;
11829;SDS011;5972;42.134;24.718;2023-06-14T05:07:16;15.90;;;6.43;;
11829;SDS011;5972;42.134;24.718;2023-06-14T05:09:44;12.43;;;6.70;;
11829;SDS011;5972;42.134;24.718;2023-06-14T05:12:11;12.85;;;6.97;;
11829;SDS011;5972;42.134;24.718;2023-06-14T05:14:37;13.80;;;7.38;;
11829;SDS011;5972;42.134;24.718;2023-06-14T05:17:04;13.95;;;8.20;;
11829;SDS011;5972;42.134;24.718;2023-06-14T05:19:32;13.77;;;8.50;;
11829;SDS011;5972;42.134;24.718;2023-06-14T05:22:06;14.80;;;8.77;;
11829;SDS011;5972;42.134;24.718;2023-06-14T05:24:34;11.60;;;8.00;;
11829;SDS011;5972;42.134;24.718;2023-06-14T05:27:01;13.38;;;8.88;;
11829;SDS011;5972;42.134;24.718;2023-06-14T05:29:28;11.38;;;10.27;;
11829;SDS011;5972;42.134;24.718;2023-06-14T05:31:55;13.98;;;10.43;;
11829;SDS011;5972;42.134;24.718;2023-06-14T05:34:22;12.77;;;11.48;;
11829;SDS011;5972;42.134;24.718;2023-06-14T05:36:49;13.45;;;12.10;;
11829;SDS011;5972;42.134;24.718;2023-06-14T05:39:15;12.43;;;11.23;;
11829;SDS011;5972;42.134;24.718;2023-06-14T05:41:43;14.38;;;11.23;;
11829;SDS011;5972;42.134;24.718;2023-06-14T05:44:10;13.70;;;12.35;;
11829;SDS011;5972;42.134;24.718;2023-06-14T05:46:37;15.50;;;12.07;;
11829;SDS011;5972;42.134;24.718;2023-06-14T05:49:05;12.15;;;10.68;;
11829;SDS011;5972;42.134;24.718;2023-06-14T05:51:32;12.25;;;10.82;;
11829;SDS011;5972;42.134;24.718;2023-06-14T05:53:58;10.60;;;9.50;;
11829;SDS011;5972;42.134;24.718;2023-06-14T05:56:26;14.32;;;10.82;;
11829;SDS011;5972;42.134;24.718;2023-06-14T05:58:54;13.25;;;11.80;;
11829;SDS011;5972;42.134;24.718;2023-06-14T06:01:21;11.27;;;10.18;;
11829;SDS011;5972;42.134;24.718;2023-06-14T06:03:47;13.57;;;11.85;;
11829;SDS011;5972;42.134;24.718;2023-06-14T06:06:14;11.40;;;10.30;;
11829;SDS011;5972;42.134;24.718;2023-06-14T06:08:42;11.70;;;10.50;;
11829;SDS011;5972;42.134;24.718;2023-06-14T06:11:09;11.35;;;10.10;;
11829;SDS011;5972;42.134;24.718;2023-06-14T06:13:36;12.52;;;11.13;;
11829;SDS011;5972;42.134;24.718;2023-06-14T06:16:05;11.88;;;10.60;;
11829;SDS011;5972;42.134;24.718;2023-06-14T06:18:32;14.00;;;10.98;;
11829;SDS011;5972;42.134;24.718;2023-06-14T06:20:59;12.85;;;10.77;;
11829;SDS011;5972;42.134;24.718;2023-06-14T06:23:26;11.07;;;9.98;;
11829;SDS011;5972;42.134;24.718;2023-06-14T06:25:52;12.63;;;11.25;;
11829;SDS011;5972;42.134;24.718;2023-06-14T06:28:19;16.40;;;11.30;;
11829;SDS011;5972;42.134;24.718;2023-06-14T06:30:46;17.20;;;11.00;;
11829;SDS011;5972;42.134;24.718;2023-06-14T06:33:14;12.10;;;10.90;;
11829;SDS011;5972;42.134;24.718;2023-06-14T06:35:41;13.38;;;11.27;;
11829;SDS011;5972;42.134;24.718;2023-06-14T06:38:08;12.43;;;10.88;;
11829;SDS011;5972;42.134;24.718;2023-06-14T06:40:36;11.40;;;10.35;;
11829;SDS011;5972;42.134;24.718;2023-06-14T06:43:03;10.20;;;9.30;;
11829;SDS011;5972;42.134;24.718;2023-06-14T06:45:29;11.25;;;9.75;;
11829;SDS011;5972;42.134;24.718;2023-06-14T06:47:56;10.65;;;9.63;;
11829;SDS011;5972;42.134;24.718;2023-06-14T06:50:24;11.57;;;9.68;;
11829;SDS011;5972;42.134;24.718;2023-06-14T06:52:51;11.18;;;10.02;;
11829;SDS011;5972;42.134;24.718;2023-06-14T06:55:19;9.85;;;8.85;;
11829;SDS011;5972;42.134;24.718;2023-06-14T06:57:46;11.35;;;10.25;;
11829;SDS011;5972;42.134;24.718;2023-06-14T07:00:15;11.15;;;9.85;;
11829;SDS011;5972;42.134;24.718;2023-06-14T07:02:42;10.40;;;9.43;;
11829;SDS011;5972;42.134;24.718;2023-06-14T07:05:09;10.93;;;9.20;;
11829;SDS011;5972;42.134;24.718;2023-06-14T07:07:37;10.77;;;9.82;;
11829;SDS011;5972;42.134;24.718;2023-06-14T07:10:05;13.20;;;9.55;;
11829;SDS011;5972;42.134;24.718;2023-06-14T07:12:33;11.07;;;10.07;;
11829;SDS011;5972;42.134;24.718;2023-06-14T07:15:04;12.18;;;9.35;;
11829;SDS011;5972;42.134;24.718;2023-06-14T07:17:32;9.77;;;8.93;;
11829;SDS011;5972;42.134;24.718;2023-06-14T07:19:59;11.77;;;8.65;;
11829;SDS011;5972;42.134;24.718;2023-06-14T07:22:35;10.38;;;9.38;;
11829;SDS011;5972;42.134;24.718;2023-06-14T07:25:04;9.70;;;8.45;;
11829;SDS011;5972;42.134;24.718;2023-06-14T07:27:31;9.82;;;8.93;;
11829;SDS011;5972;42.134;24.718;2023-06-14T07:29:58;10.50;;;8.57;;
11829;SDS011;5972;42.134;24.718;2023-06-14T07:32:25;9.77;;;8.88;;
11829;SDS011;5972;42.134;24.718;2023-06-14T07:34:56;10.43;;;9.07;;
11829;SDS011;5972;42.134;24.718;2023-06-14T07:37:26;9.85;;;8.85;;
11829;SDS011;5972;42.134;24.718;2023-06-14T07:39:55;10.63;;;8.70;;
11829;SDS011;5972;42.134;24.718;2023-06-14T07:42:21;10.30;;;7.88;;
11829;SDS011;5972;42.134;24.718;2023-06-14T07:44:48;9.00;;;8.30;;
11829;SDS011;5972;42.134;24.718;2023-06-14T07:47:15;10.70;;;8.27;;
11829;SDS011;5972;42.134;24.718;2023-06-14T07:49:42;9.70;;;8.35;;
11829;SDS011;5972;42.134;24.718;2023-06-14T07:52:09;11.38;;;8.85;;
11829;SDS011;5972;42.134;24.718;2023-06-14T07:54:36;10.63;;;8.35;;
11829;SDS011;5972;42.134;24.718;2023-06-14T07:57:05;9.40;;;8.60;;
11829;SDS011;5972;42.134;24.718;2023-06-14T07:59:32;10.20;;;9.07;;
11829;SDS011;5972;42.134;24.718;2023-06-14T08:01:59;14.02;;;9.35;;
11829;SDS011;5972;42.134;24.718;2023-06-14T08:04:26;12.13;;;9.20;;
11829;SDS011;5972;42.134;24.718;2023-06-14T08:06:53;14.05;;;9.60;;
11829;SDS011;5972;42.134;24.718;2023-06-14T08:09:19;11.32;;;9.30;;
11829;SDS011;5972;42.134;24.718;2023-06-14T08:11:51;12.23;;;9.85;;
11829;SDS011;5972;42.134;24.718;2023-06-14T08:14:20;9.77;;;8.82;;
11829;SDS011;5972;42.134;24.718;2023-06-14T08:16:47;11.90;;;9.82;;
11829;SDS011;5972;42.134;24.718;2023-06-14T08:19:14;14.07;;;9.95;;
11829;SDS011;5972;42.134;24.718;2023-06-14T08:21:55;13.95;;;10.13;;
11829;SDS011;5972;42.134;24.718;2023-06-14T08:24:25;12.77;;;9.90;;
11829;SDS011;5972;42.134;24.718;2023-06-14T08:26:53;15.68;;;9.20;;
11829;SDS011;5972;42.134;24.718;2023-06-14T08:29:21;9.32;;;8.50;;
11829;SDS011;5972;42.134;24.718;2023-06-14T08:31:48;10.70;;;8.85;;
11829;SDS011;5972;42.134;24.718;2023-06-14T08:34:15;10.15;;;9.25;;
11829;SDS011;5972;42.134;24.718;2023-06-14T08:36:41;10.70;;;9.50;;
11829;SDS011;5972;42.134;24.718;2023-06-14T08:39:08;14.30;;;8.80;;
11829;SDS011;5972;42.134;24.718;2023-06-14T08:41:35;14.93;;;10.20;;
11829;SDS011;5972;42.134;24.718;2023-06-14T08:44:02;10.65;;;8.90;;
11829;SDS011;5972;42.134;24.718;2023-06-14T08:46:32;10.65;;;9.30;;
11829;SDS011;5972;42.134;24.718;2023-06-14T08:49:00;9.55;;;8.68;;
11829;SDS011;5972;42.134;24.718;2023-06-14T08:51:28;15.02;;;9.30;;
11829;SDS011;5972;42.134;24.718;2023-06-14T08:53:59;12.20;;;8.80;;
11829;SDS011;5972;42.134;24.718;2023-06-14T08:56:26;11.45;;;10.27;;
11829;SDS011;5972;42.134;24.718;2023-06-14T08:58:55;9.70;;;8.73;;
11829;SDS011;5972;42.134;24.718;2023-06-14T09:01:22;11.48;;;8.70;;
11829;SDS011;5972;42.134;24.718;2023-06-14T09:03:51;12.20;;;10.10;;
11829;SDS011;5972;42.134;24.718;2023-06-14T09:06:19;11.88;;;9.88;;
11829;SDS011;5972;42.134;24.718;2023-06-14T09:08:48;9.80;;;9.00;;
11829;SDS011;5972;42.134;24.718;2023-06-14T09:11:16;9.90;;;8.90;;
11829;SDS011;5972;42.134;24.718;2023-06-14T09:13:44;11.38;;;8.98;;
11829;SDS011;5972;42.134;24.718;2023-06-14T09:16:11;9.20;;;8.30;;
11829;SDS011;5972;42.134;24.718;2023-06-14T09:18:39;10.85;;;8.80;;
11829;SDS011;5972;42.134;24.718;2023-06-14T09:21:10;10.15;;;8.57;;
11829;SDS011;5972;42.134;24.718;2023-06-14T09:23:38;9.20;;;8.30;;
11829;SDS011;5972;42.134;24.718;2023-06-14T09:26:08;9.07;;;8.23;;
11829;SDS011;5972;42.134;24.718;2023-06-14T09:28:36;11.68;;;8.55;;
11829;SDS011;5972;42.134;24.718;2023-06-14T09:31:07;11.68;;;9.18;;
11829;SDS011;5972;42.134;24.718;2023-06-14T09:33:35;12.90;;;9.15;;
11829;SDS011;5972;42.134;24.718;2023-06-14T09:36:02;10.25;;;9.30;;
11829;SDS011;5972;42.134;24.718;2023-06-14T09:38:31;9.73;;;8.73;;
11829;SDS011;5972;42.134;24.718;2023-06-14T09:41:00;10.57;;;9.48;;
11829;SDS011;5972;42.134;24.718;2023-06-14T09:43:34;11.10;;;8.60;;
11829;SDS011;5972;42.134;24.718;2023-06-14T09:46:02;10.32;;;9.45;;
11829;SDS011;5972;42.134;24.718;2023-06-14T09:48:31;16.83;;;8.55;;
11829;SDS011;5972;42.134;24.718;2023-06-14T09:50:57;9.88;;;8.25;;
11829;SDS011;5972;42.134;24.718;2023-06-14T09:53:25;9.00;;;8.15;;
11829;SDS011;5972;42.134;24.718;2023-06-14T09:55:56;9.50;;;8.00;;
11829;SDS011;5972;42.134;24.718;2023-06-14T09:58:24;9.73;;;8.32;;
11829;SDS011;5972;42.134;24.718;2023-06-14T10:00:54;11.45;;;8.23;;
11829;SDS011;5972;42.134;24.718;2023-06-14T10:03:24;12.48;;;10.00;;
11829;SDS011;5972;42.134;24.718;2023-06-14T10:05:54;10.95;;;9.63;;
11829;SDS011;5972;42.134;24.718;2023-06-14T10:08:27;10.60;;;9.50;;
11829;SDS011;5972;42.134;24.718;2023-06-14T10:10:59;11.65;;;9.40;;
11829;SDS011;5972;42.134;24.718;2023-06-14T10:13:26;12.00;;;9.93;;
11829;SDS011;5972;42.134;24.718;2023-06-14T10:15:58;12.10;;;10.50;;
11829;SDS011;5972;42.134;24.718;2023-06-14T10:18:33;11.80;;;9.68;;
11829;SDS011;5972;42.134;24.718;2023-06-14T10:21:09;10.43;;;9.38;;
11829;SDS011;5972;42.134;24.718;2023-06-14T10:23:45;10.77;;;9.63;;
11829;SDS011;5972;42.134;24.718;2023-06-14T10:26:18;11.10;;;9.77;;
11829;SDS011;5972;42.134;24.718;2023-06-14T10:28:55;10.95;;;9.85;;
11829;SDS011;5972;42.134;24.718;2023-06-14T10:31:24;19.90;;;9.82;;
11829;SDS011;5972;42.134;24.718;2023-06-14T10:34:06;10.45;;;9.35;;
11829;SDS011;5972;42.134;24.718;2023-06-14T10:36:33;11.15;;;10.02;;
11829;SDS011;5972;42.134;24.718;2023-06-14T10:39:01;9.70;;;8.80;;
11829;SDS011;5972;42.134;24.718;2023-06-14T10:41:34;12.38;;;9.38;;
11829;SDS011;5972;42.134;24.718;2023-06-14T10:44:10;12.02;;;9.63;;
11829;SDS011;5972;42.134;24.718;2023-06-14T10:46:52;10.13;;;9.23;;
11829;SDS011;5972;42.134;24.718;2023-06-14T10:49:19;17.08;;;9.82;;
11829;SDS011;5972;42.134;24.718;2023-06-14T10:51:49;14.48;;;8.85;;
11829;SDS011;5972;42.134;24.718;2023-06-14T10:54:18;10.80;;;9.70;;
11829;SDS011;5972;42.134;24.718;2023-06-14T10:56:50;11.00;;;9.77;;
11829;SDS011;5972;42.134;24.718;2023-06-14T10:59:19;11.63;;;7.93;;
11829;SDS011;5972;42.134;24.718;2023-06-14T11:01:49;13.35;;;9.80;;
11829;SDS011;5972;42.134;24.718;2023-06-14T11:04:23;10.32;;;8.43;;
11829;SDS011;5972;42.134;24.718;2023-06-14T11:07:04;12.52;;;8.57;;
11829;SDS011;5972;42.134;24.718;2023-06-14T11:09:57;9.23;;;8.27;;
11829;SDS011;5972;42.134;24.718;2023-06-14T11:12:37;8.93;;;8.05;;
11829;SDS011;5972;42.134;24.718;2023-06-14T11:15:07;8.13;;;7.35;;
11829;SDS011;5972;42.134;24.718;2023-06-14T11:17:35;12.20;;;7.20;;
11829;SDS011;5972;42.134;24.718;2023-06-14T11:20:08;7.60;;;6.90;;
11829;SDS011;5972;42.134;24.718;2023-06-14T11:22:38;9.63;;;7.60;;
11829;SDS011;5972;42.134;24.718;2023-06-14T11:25:08;8.90;;;7.82;;
11829;SDS011;5972;42.134;24.718;2023-06-14T11:27:35;8.98;;;8.18;;
11829;SDS011;5972;42.134;24.718;2023-06-14T11:30:06;9.10;;;8.27;;
11829;SDS011;5972;42.134;24.718;2023-06-14T11:32:34;12.43;;;8.90;;
11829;SDS011;5972;42.134;24.718;2023-06-14T11:35:01;8.85;;;8.05;;
11829;SDS011;5972;42.134;24.718;2023-06-14T11:37:29;12.60;;;8.75;;
11829;SDS011;5972;42.134;24.718;2023-06-14T11:39:58;9.43;;;8.38;;
11829;SDS011;5972;42.134;24.718;2023-06-14T11:42:26;9.80;;;8.82;;
11829;SDS011;5972;42.134;24.718;2023-06-14T11:44:53;9.77;;;8.65;;
11829;SDS011;5972;42.134;24.718;2023-06-14T11:47:22;9.63;;;8.38;;
11829;SDS011;5972;42.134;24.718;2023-06-14T11:49:49;11.88;;;8.60;;
11829;SDS011;5972;42.134;24.718;2023-06-14T11:52:16;11.40;;;9.05;;
11829;SDS011;5972;42.134;24.718;2023-06-14T11:54:44;11.43;;;8.13;;
11829;SDS011;5972;42.134;24.718;2023-06-14T11:57:14;9.32;;;8.52;;
11829;SDS011;5972;42.134;24.718;2023-06-14T11:59:41;9.85;;;9.00;;
11829;SDS011;5972;42.134;24.718;2023-06-14T12:02:09;11.52;;;8.88;;
11829;SDS011;5972;42.134;24.718;2023-06-14T12:04:37;9.38;;;8.55;;
11829;SDS011;5972;42.134;24.718;2023-06-14T12:07:10;10.98;;;8.52;;
11829;SDS011;5972;42.134;24.718;2023-06-14T12:09:40;10.45;;;9.45;;
11829;SDS011;5972;42.134;24.718;2023-06-14T12:12:09;10.63;;;9.52;;
11829;SDS011;5972;42.134;24.718;2023-06-14T12:14:36;10.43;;;9.38;;
11829;SDS011;5972;42.134;24.718;2023-06-14T12:17:03;9.55;;;8.65;;
11829;SDS011;5972;42.134;24.718;2023-06-14T12:19:32;10.93;;;8.80;;
11829;SDS011;5972;42.134;24.718;2023-06-14T12:22:00;9.18;;;8.40;;
11829;SDS011;5972;42.134;24.718;2023-06-14T12:24:30;13.35;;;10.00;;
11829;SDS011;5972;42.134;24.718;2023-06-14T12:26:58;11.70;;;9.70;;
11829;SDS011;5972;42.134;24.718;2023-06-14T12:29:25;10.80;;;9.05;;
11829;SDS011;5972;42.134;24.718;2023-06-14T12:31:52;9.35;;;8.45;;
11829;SDS011;5972;42.134;24.718;2023-06-14T12:34:27;10.48;;;9.38;;
11829;SDS011;5972;42.134;24.718;2023-06-14T12:36:54;8.85;;;8.25;;
11829;SDS011;5972;42.134;24.718;2023-06-14T12:39:22;9.73;;;8.77;;
11829;SDS011;5972;42.134;24.718;2023-06-14T12:41:49;9.38;;;8.48;;
11829;SDS011;5972;42.134;24.718;2023-06-14T12:44:16;10.23;;;9.23;;
11829;SDS011;5972;42.134;24.718;2023-06-14T12:46:43;9.57;;;8.70;;
11829;SDS011;5972;42.134;24.718;2023-06-14T12:49:10;11.20;;;9.18;;
11829;SDS011;5972;42.134;24.718;2023-06-14T12:51:39;14.73;;;9.02;;
11829;SDS011;5972;42.134;24.718;2023-06-14T12:54:23;9.75;;;8.48;;
11829;SDS011;5972;42.134;24.718;2023-06-14T12:56:50;12.90;;;8.38;;
11829;SDS011;5972;42.134;24.718;2023-06-14T12:59:18;9.35;;;8.45;;
11829;SDS011;5972;42.134;24.718;2023-06-14T13:01:45;10.32;;;8.32;;
11829;SDS011;5972;42.134;24.718;2023-06-14T13:04:14;11.73;;;8.35;;
11829;SDS011;5972;42.134;24.718;2023-06-14T13:06:41;8.90;;;8.02;;
11829;SDS011;5972;42.134;24.718;2023-06-14T13:09:08;9.98;;;8.57;;
11829;SDS011;5972;42.134;24.718;2023-06-14T13:11:36;8.90;;;8.07;;
11829;SDS011;5972;42.134;24.718;2023-06-14T13:14:03;8.95;;;8.05;;
11829;SDS011;5972;42.134;24.718;2023-06-14T13:16:30;9.88;;;8.13;;
11829;SDS011;5972;42.134;24.718;2023-06-14T13:18:57;9.38;;;8.52;;
11829;SDS011;5972;42.134;24.718;2023-06-14T13:21:24;9.05;;;7.68;;
11829;SDS011;5972;42.134;24.718;2023-06-14T13:23:50;10.40;;;7.90;;
11829;SDS011;5972;42.134;24.718;2023-06-14T13:26:17;10.20;;;8.50;;
11829;SDS011;5972;42.134;24.718;2023-06-14T13:28:46;11.70;;;8.15;;
11829;SDS011;5972;42.134;24.718;2023-06-14T13:31:12;9.43;;;8.13;;
11829;SDS011;5972;42.134;24.718;2023-06-14T13:33:39;9.45;;;8.27;;
11829;SDS011;5972;42.134;24.718;2023-06-14T13:36:06;9.13;;;8.23;;
11829;SDS011;5972;42.134;24.718;2023-06-14T13:38:33;9.63;;;8.43;;
11829;SDS011;5972;42.134;24.718;2023-06-14T13:40:59;9.80;;;8.60;;
11829;SDS011;5972;42.134;24.718;2023-06-14T13:43:26;10.82;;;8.60;;
11829;SDS011;5972;42.134;24.718;2023-06-14T13:45:54;9.35;;;8.55;;
11829;SDS011;5972;42.134;24.718;2023-06-14T13:48:22;9.73;;;8.82;;
11829;SDS011;5972;42.134;24.718;2023-06-14T13:50:49;11.30;;;9.00;;
11829;SDS011;5972;42.134;24.718;2023-06-14T13:53:17;11.07;;;8.40;;
11829;SDS011;5972;42.134;24.718;2023-06-14T13:55:44;10.23;;;7.80;;
11829;SDS011;5972;42.134;24.718;2023-06-14T13:58:11;9.70;;;7.68;;
11829;SDS011;5972;42.134;24.718;2023-06-14T14:00:39;8.63;;;7.82;;
11829;SDS011;5972;42.134;24.718;2023-06-14T14:03:08;9.43;;;7.93;;
11829;SDS011;5972;42.134;24.718;2023-06-14T14:05:35;8.07;;;7.45;;
11829;SDS011;5972;42.134;24.718;2023-06-14T14:08:05;8.48;;;7.68;;
11829;SDS011;5972;42.134;24.718;2023-06-14T14:10:33;8.35;;;7.55;;
11829;SDS011;5972;42.134;24.718;2023-06-14T14:13:04;7.20;;;6.60;;
11829;SDS011;5972;42.134;24.718;2023-06-14T14:15:46;8.75;;;6.63;;
11829;SDS011;5972;42.134;24.718;2023-06-14T14:18:24;6.72;;;6.05;;
11829;SDS011;5972;42.134;24.718;2023-06-14T14:20:51;6.50;;;5.70;;
11829;SDS011;5972;42.134;24.718;2023-06-14T14:23:19;6.70;;;5.65;;
11829;SDS011;5972;42.134;24.718;2023-06-14T14:25:46;6.43;;;5.80;;
11829;SDS011;5972;42.134;24.718;2023-06-14T14:28:13;6.50;;;5.80;;
11829;SDS011;5972;42.134;24.718;2023-06-14T14:30:41;5.75;;;5.35;;
11829;SDS011;5972;42.134;24.718;2023-06-14T14:33:07;5.95;;;5.35;;
11829;SDS011;5972;42.134;24.718;2023-06-14T14:35:38;6.25;;;5.65;;
11829;SDS011;5972;42.134;24.718;2023-06-14T14:38:04;5.57;;;4.72;;
11829;SDS011;5972;42.134;24.718;2023-06-14T14:40:32;5.15;;;4.57;;
11829;SDS011;5972;42.134;24.718;2023-06-14T14:42:59;7.50;;;4.45;;
11829;SDS011;5972;42.134;24.718;2023-06-14T14:45:25;5.63;;;4.70;;
11829;SDS011;5972;42.134;24.718;2023-06-14T14:47:52;7.80;;;4.53;;
11829;SDS011;5972;42.134;24.718;2023-06-14T14:50:19;6.05;;;4.20;;